createdAt,value
2023-01-03T02:38:50.417Z,24.18
2023-01-03T02:39:50.368Z,24.15
2023-01-03T02:40:50.299Z,24.13
2023-01-03T02:41:50.272Z,24.22
2023-01-03T02:42:50.201Z,24.12
2023-01-03T02:43:50.147Z,24.19
2023-01-03T02:44:50.094Z,24.15
2023-01-03T02:45:50.036Z,24.22
2023-01-03T02:46:50.017Z,24.15
2023-01-03T02:47:49.941Z,24.18
2023-01-03T02:48:49.893Z,24.15
2023-01-03T02:49:49.869Z,24.18
2023-01-03T02:50:49.811Z,24.15
2023-01-03T02:51:49.822Z,24.13
2023-01-03T02:52:49.707Z,24.15
2023-01-03T02:53:49.657Z,24.18
2023-01-03T02:54:49.607Z,24.16
2023-01-03T02:55:49.549Z,24.19
2023-01-03T02:56:49.504Z,24.18
2023-01-03T02:57:49.450Z,24.17
2023-01-03T02:58:49.407Z,24.13
2023-01-03T02:59:49.347Z,24.13
2023-01-03T03:00:49.290Z,24.16
2023-01-03T03:01:49.330Z,24.15
2023-01-03T03:02:49.298Z,24.13
2023-01-03T03:03:49.248Z,24.13
2023-01-03T03:04:49.133Z,24.16
2023-01-03T03:05:49.066Z,24.15
2023-01-03T03:06:49.011Z,24.19
2023-01-03T03:07:48.948Z,24.19
2023-01-03T03:24:48.081Z,24.11
2023-01-03T03:25:48.020Z,24.18
2023-01-03T03:26:47.971Z,24.12
2023-01-03T03:27:47.923Z,24.15
2023-01-03T03:28:47.856Z,24.06
2023-01-03T03:29:47.816Z,24.11
2023-01-03T03:30:47.737Z,24.11
2023-01-03T03:31:47.728Z,24.13
2023-01-03T03:32:47.623Z,24.03
2023-01-03T03:33:47.595Z,24.13
2023-01-03T03:34:47.520Z,24.05
2023-01-03T03:35:47.480Z,24.13
2023-01-03T03:37:47.356Z,24.15
2023-01-03T03:38:47.291Z,24.13
2023-01-03T03:39:47.266Z,24.15
2023-01-03T03:40:47.189Z,24.15
2023-01-03T03:41:47.142Z,24.15
2023-01-03T03:42:47.085Z,24.18
2023-01-03T03:43:47.027Z,24.08
2023-01-03T03:44:46.989Z,24.08
2023-01-03T03:45:46.922Z,24.12
2023-01-03T03:46:54.239Z,24.12
2023-01-03T03:48:46.778Z,24.16
2023-01-03T03:49:46.735Z,24.18
2023-01-03T03:50:46.694Z,24.18
2023-01-03T03:51:46.633Z,24.13
2023-01-03T03:52:46.607Z,24.15
2023-01-03T03:53:46.535Z,24.16
2023-01-03T03:54:46.490Z,24.16
2023-01-03T03:55:46.583Z,24.12
2023-01-03T03:56:46.371Z,24.15
2023-01-03T03:57:46.314Z,24.12
2023-01-03T03:58:46.265Z,24.15
2023-01-03T03:59:46.211Z,24.06
2023-01-03T04:00:46.161Z,24.05
2023-01-03T04:01:46.214Z,24.11
2023-01-03T04:02:46.136Z,24.05
2023-01-03T04:03:46.117Z,24.15
2023-01-03T04:04:45.964Z,24.13
2023-01-03T04:05:45.922Z,24.20
2023-01-03T04:06:45.868Z,24.15
2023-01-03T04:07:45.812Z,24.16
2023-01-03T04:08:45.787Z,24.17
2023-01-03T04:09:45.718Z,24.18
2023-01-03T04:10:45.676Z,24.16
2023-01-03T04:11:45.638Z,24.12
2023-01-03T04:12:45.575Z,24.12
2023-01-03T04:13:45.521Z,24.13
2023-01-03T04:14:45.472Z,24.15
2023-01-03T04:15:45.408Z,24.15
2023-01-03T04:16:45.430Z,24.08
2023-01-03T04:17:45.317Z,24.05
2023-01-03T04:18:45.300Z,24.12
2023-01-03T04:19:45.197Z,24.19
2023-01-03T04:20:45.152Z,24.16
2023-01-03T04:21:45.088Z,24.17
2023-01-03T04:22:45.041Z,24.13
2023-01-03T04:23:44.997Z,24.12
2023-01-03T04:24:44.943Z,24.12
2023-01-03T04:25:44.928Z,24.15
2023-01-03T04:26:44.840Z,24.16
2023-01-03T04:27:44.772Z,24.10
2023-01-03T04:28:44.728Z,24.16
2023-01-03T04:29:44.674Z,24.10
2023-01-03T04:30:44.619Z,24.13
2023-01-03T04:31:44.617Z,24.13
2023-01-03T04:32:44.524Z,24.15
2023-01-03T04:33:44.465Z,24.13
2023-01-03T04:34:44.419Z,24.13
2023-01-03T04:35:44.360Z,24.16
2023-01-03T04:36:44.354Z,24.16
2023-01-03T04:37:44.268Z,24.16
2023-01-03T04:38:44.218Z,24.17
2023-01-03T04:39:44.177Z,24.15
2023-01-03T04:40:44.116Z,24.12
2023-01-03T04:41:44.082Z,24.16
2023-01-03T04:42:44.066Z,24.12
2023-01-03T04:43:44.016Z,24.17
2023-01-03T04:44:43.977Z,24.13
2023-01-03T04:45:43.917Z,24.13
2023-01-03T04:46:49.030Z,24.12
2023-01-03T04:47:44.768Z,24.15
2023-01-03T04:48:43.731Z,24.16
2023-01-03T04:49:43.656Z,24.17
2023-01-03T04:50:43.604Z,24.13
2023-01-03T04:51:43.567Z,24.17
2023-01-03T04:52:43.491Z,24.09
2023-01-03T04:53:43.451Z,24.16
2023-01-03T04:54:43.417Z,24.19
2023-01-03T04:55:43.352Z,24.20
2023-01-03T04:56:43.333Z,24.20
2023-01-03T04:57:43.230Z,24.19
2023-01-03T04:58:43.177Z,24.19
2023-01-03T04:59:43.128Z,24.19
2023-01-03T05:00:43.114Z,24.16
2023-01-03T05:01:43.088Z,24.16
2023-01-03T05:02:43.082Z,24.15
2023-01-03T05:03:42.954Z,24.15
2023-01-03T05:04:42.907Z,24.19
2023-01-03T05:05:42.800Z,24.17
2023-01-03T05:06:42.758Z,24.13
2023-01-03T05:07:42.700Z,24.23
2023-01-03T05:08:42.644Z,24.22
2023-01-03T05:09:42.593Z,24.10
2023-01-03T05:10:42.547Z,24.17
2023-01-03T05:11:42.492Z,24.19
2023-01-03T05:12:42.434Z,24.17
2023-01-03T05:13:42.396Z,24.17
2023-01-03T05:14:42.327Z,24.19
2023-01-03T05:15:42.270Z,24.15
2023-01-03T05:16:42.297Z,24.14
2023-01-03T05:17:42.275Z,24.15
2023-01-03T05:18:42.126Z,24.14
2023-01-03T05:19:45.432Z,24.16
2023-01-03T05:20:42.020Z,24.19
2023-01-03T05:21:41.967Z,24.17
2023-01-03T05:22:41.903Z,24.17
2023-01-03T05:23:41.852Z,24.15
2023-01-03T05:24:41.799Z,24.17
2023-01-03T05:25:41.738Z,24.17
2023-01-03T05:26:41.670Z,24.17
2023-01-03T05:27:41.616Z,24.13
2023-01-03T05:28:41.569Z,24.15
2023-01-03T05:29:41.520Z,24.12
2023-01-03T05:30:41.458Z,24.10
2023-01-03T05:31:41.511Z,24.17
2023-01-03T05:32:41.357Z,24.16
2023-01-03T05:33:41.297Z,24.19
2023-01-03T05:34:41.240Z,24.17
2023-01-03T05:35:41.180Z,24.20
2023-01-03T05:36:41.136Z,24.16
2023-01-03T05:37:41.078Z,24.16
2023-01-03T05:38:41.026Z,24.15
2023-01-03T05:39:40.970Z,24.15
2023-01-03T05:40:41.618Z,24.16
2023-01-03T05:41:40.872Z,24.20
2023-01-03T05:42:40.814Z,24.20
2023-01-03T05:43:40.767Z,24.19
2023-01-03T05:44:40.725Z,24.16
2023-01-03T05:45:40.687Z,24.19
2023-01-03T05:46:40.641Z,24.19
2023-01-03T05:47:40.692Z,24.14
2023-01-03T05:48:40.537Z,24.15
2023-01-03T05:49:40.476Z,24.14
2023-01-03T05:50:40.442Z,24.16
2023-01-03T05:51:40.381Z,24.16
2023-01-03T05:52:40.348Z,24.16
2023-01-03T05:53:40.279Z,24.22
2023-01-03T05:54:40.241Z,24.17
2023-01-03T05:55:40.180Z,24.23
2023-01-03T05:56:40.139Z,24.19
2023-01-03T05:57:40.075Z,24.22
2023-01-03T05:58:40.026Z,24.22
2023-01-03T05:59:39.972Z,24.23
2023-01-03T06:00:39.997Z,24.16
2023-01-03T06:01:39.930Z,24.22
2023-01-03T06:02:39.846Z,24.17
2023-01-03T06:03:39.740Z,24.16
2023-01-03T06:04:39.722Z,24.17
2023-01-03T06:05:43.358Z,24.16
2023-01-03T06:06:40.573Z,24.13
2023-01-03T06:07:39.523Z,24.20
2023-01-03T06:08:39.462Z,24.19
2023-01-03T06:09:39.419Z,24.17
2023-01-03T06:10:39.360Z,24.14
2023-01-03T06:11:39.295Z,24.17
2023-01-03T06:12:39.249Z,24.16
2023-01-03T06:13:39.205Z,24.17
2023-01-03T06:14:39.150Z,24.20
2023-01-03T06:15:39.102Z,24.20
2023-01-03T06:16:39.085Z,24.23
2023-01-03T06:17:38.989Z,24.23
2023-01-03T06:18:38.984Z,24.19
2023-01-03T06:42:37.735Z,24.29
2023-01-03T06:43:37.695Z,24.23
2023-01-03T06:44:37.631Z,24.24
2023-01-03T06:45:37.583Z,24.23
2023-01-03T06:46:37.579Z,24.22
2023-01-03T06:47:37.468Z,24.23
2023-01-03T06:48:37.426Z,24.24
2023-01-03T06:49:37.374Z,24.19
2023-01-03T06:50:37.331Z,24.24
2023-01-03T06:51:37.327Z,24.24
2023-01-03T06:52:37.233Z,24.16
2023-01-03T06:53:37.174Z,24.19
2023-01-03T06:54:37.135Z,24.20
2023-01-03T06:55:37.081Z,24.20
2023-01-03T06:56:37.035Z,24.14
2023-01-03T06:57:37.007Z,24.24
2023-01-03T06:58:36.940Z,24.23
2023-01-03T06:59:36.909Z,24.24
2023-01-03T07:00:36.843Z,24.20
2023-01-03T07:01:36.861Z,24.23
2023-01-03T07:02:36.817Z,24.23
2023-01-03T07:03:36.707Z,24.24
2023-01-03T07:04:36.715Z,24.17
2023-01-03T07:05:36.582Z,24.20
2023-01-03T07:06:36.539Z,24.23
2023-01-03T07:07:36.490Z,24.24
2023-01-03T07:08:36.428Z,24.19
2023-01-03T07:09:36.372Z,24.25
2023-01-03T07:10:36.327Z,24.19
2023-01-03T07:11:36.269Z,24.20
2023-01-03T07:12:36.230Z,24.13
2023-01-03T07:13:36.194Z,24.20
2023-01-03T07:14:36.141Z,24.20
2023-01-03T07:15:36.109Z,24.17
2023-01-03T07:16:36.136Z,24.19
2023-01-03T07:17:36.003Z,24.15
2023-01-03T07:18:35.948Z,24.15
2023-01-03T07:19:35.888Z,24.19
2023-01-03T07:20:35.847Z,24.12
2023-01-03T07:21:35.783Z,24.16
2023-01-03T07:22:35.740Z,24.16
2023-01-03T07:23:35.693Z,24.13
2023-01-03T07:24:35.629Z,24.14
2023-01-03T07:25:35.585Z,24.17
2023-01-03T07:26:35.572Z,24.12
2023-01-03T07:27:35.495Z,24.12
2023-01-03T07:28:35.437Z,24.10
2023-01-03T07:29:35.392Z,24.12
2023-01-03T07:30:35.329Z,24.14
2023-01-03T07:31:35.423Z,24.17
2023-01-03T07:32:35.217Z,24.14
2023-01-03T07:33:35.170Z,24.12
2023-01-03T07:34:35.120Z,24.12
2023-01-03T07:35:35.064Z,24.12
2023-01-03T07:36:35.038Z,24.09
2023-01-03T07:37:34.955Z,24.13
2023-01-03T07:38:35.017Z,24.09
2023-01-03T07:39:34.860Z,24.12
2023-01-03T07:40:34.826Z,24.09
2023-01-03T07:41:34.765Z,24.12
2023-01-03T07:42:34.720Z,24.06
2023-01-03T07:43:34.664Z,24.17
2023-01-03T07:44:34.621Z,24.13
2023-01-03T07:45:34.555Z,24.10
2023-01-03T07:46:34.554Z,24.12
2023-01-03T07:47:34.472Z,24.09
2023-01-03T07:48:34.452Z,24.07
2023-01-03T07:49:34.365Z,24.16
2023-01-03T07:50:34.334Z,24.09
2023-01-03T07:51:34.307Z,24.54
2023-01-03T07:52:34.225Z,28.39
2023-01-03T07:53:34.163Z,28.26
2023-01-03T07:54:34.116Z,27.33
2023-01-03T07:55:35.437Z,27.01
2023-01-03T07:56:34.021Z,26.70
2023-01-03T07:57:33.975Z,26.60
2023-01-03T07:58:33.930Z,26.62
2023-01-03T07:59:33.868Z,26.66
2023-01-03T08:00:33.824Z,26.74
2023-01-03T08:01:33.910Z,26.64
2023-01-03T08:02:33.801Z,26.64
2023-01-03T08:03:33.665Z,26.60
2023-01-03T08:04:33.659Z,26.43
2023-01-03T08:05:33.569Z,26.39
2023-01-03T08:06:33.499Z,26.32
2023-01-03T08:07:33.462Z,26.27
2023-01-03T08:08:33.409Z,26.25
2023-01-03T08:09:33.368Z,26.14
2023-01-03T08:10:33.315Z,26.16
2023-01-03T08:11:33.274Z,26.05
2023-01-03T08:12:33.239Z,25.95
2023-01-03T08:13:33.179Z,26.02
2023-01-03T08:14:33.142Z,25.92
2023-01-03T08:15:33.071Z,25.89
2023-01-03T08:16:33.108Z,25.81
2023-01-03T08:17:32.973Z,25.81
2023-01-03T08:18:32.944Z,25.72
2023-01-03T08:19:32.886Z,25.72
2023-01-03T08:20:32.908Z,25.65
2023-01-03T08:21:33.537Z,25.64
2023-01-03T08:22:32.741Z,25.62
2023-01-03T08:23:32.676Z,25.55
2023-01-03T08:24:32.635Z,25.54
2023-01-03T08:25:32.592Z,25.50
2023-01-03T08:26:32.545Z,25.43
2023-01-03T08:27:32.509Z,25.44
2023-01-03T08:28:32.441Z,25.44
2023-01-03T08:29:32.459Z,25.34
2023-01-03T08:30:32.396Z,25.31
2023-01-03T08:31:32.522Z,25.30
2023-01-03T08:32:32.376Z,25.30
2023-01-03T08:33:32.374Z,25.26
2023-01-03T08:34:32.186Z,25.19
2023-01-03T08:35:32.155Z,25.14
2023-01-03T08:36:32.090Z,25.19
2023-01-03T08:37:32.047Z,25.13
2023-01-03T08:38:31.998Z,25.10
2023-01-03T08:39:31.952Z,25.05
2023-01-03T08:40:36.719Z,25.06
2023-01-03T08:41:32.863Z,25.10
2023-01-03T08:42:31.814Z,25.00
2023-01-03T08:43:31.760Z,25.05
2023-01-03T08:44:31.729Z,24.98
2023-01-03T08:45:31.667Z,24.98
2023-01-03T08:46:31.651Z,24.96
2023-01-03T08:47:31.564Z,24.95
2023-01-03T08:48:31.522Z,24.90
2023-01-03T08:49:31.460Z,24.89
2023-01-03T08:50:31.407Z,24.85
2023-01-03T08:51:31.354Z,24.91
2023-01-03T08:52:35.047Z,24.81
2023-01-03T08:53:31.255Z,24.86
2023-01-03T08:54:31.205Z,24.85
2023-01-03T08:55:31.188Z,24.84
2023-01-03T08:56:31.099Z,24.75
2023-01-03T08:57:31.073Z,24.75
2023-01-03T08:58:31.005Z,24.75
2023-01-03T08:59:30.961Z,24.69
2023-01-03T09:00:30.897Z,24.77
2023-01-03T09:01:30.983Z,24.74
2023-01-03T09:02:30.856Z,24.68
2023-01-03T09:03:30.878Z,24.68
2023-01-03T09:04:30.704Z,24.69
2023-01-03T09:05:30.631Z,24.67
2023-01-03T09:06:30.586Z,24.65
2023-01-03T09:07:30.532Z,24.61
2023-01-03T09:08:30.474Z,24.61
2023-01-03T09:09:30.434Z,24.58
2023-01-03T09:10:30.392Z,24.62
2023-01-03T09:11:30.342Z,24.60
2023-01-03T09:12:30.269Z,24.57
2023-01-03T09:13:30.232Z,24.58
2023-01-03T09:14:30.167Z,24.54
2023-01-03T09:15:30.135Z,24.53
2023-01-03T09:16:30.130Z,24.60
2023-01-03T09:17:30.040Z,24.51
2023-01-03T09:18:29.972Z,24.50
2023-01-03T09:19:29.938Z,24.53
2023-01-03T09:20:29.872Z,24.50
2023-01-03T09:21:29.817Z,24.44
2023-01-03T09:22:29.761Z,24.47
2023-01-03T09:23:29.704Z,24.41
2023-01-03T09:24:29.652Z,24.44
2023-01-03T09:25:36.593Z,24.38
2023-01-03T09:26:30.563Z,24.39
2023-01-03T09:27:29.501Z,24.40
2023-01-03T09:28:29.507Z,24.37
2023-01-03T09:29:29.616Z,24.39
2023-01-03T09:30:29.444Z,24.42
2023-01-03T09:31:29.424Z,24.37
2023-01-03T09:32:29.223Z,24.40
2023-01-03T09:33:29.200Z,24.37
2023-01-03T09:34:29.099Z,24.35
2023-01-03T09:35:29.053Z,24.42
2023-01-03T09:36:29.002Z,24.36
2023-01-03T11:41:21.857Z,23.47
2023-01-03T11:42:21.790Z,23.45
2023-01-03T11:43:21.739Z,23.50
2023-01-03T11:44:21.677Z,23.45
2023-01-03T11:45:21.642Z,23.43
2023-01-03T11:46:21.599Z,23.47
2023-01-03T11:47:21.510Z,23.44
2023-01-03T11:48:21.470Z,23.41
2023-01-03T11:49:21.418Z,23.41
2023-01-03T11:50:21.348Z,23.38
2023-01-03T11:51:21.312Z,23.40
2023-01-03T11:52:21.279Z,23.36
2023-01-03T11:53:21.216Z,23.37
2023-01-03T11:54:21.148Z,23.40
2023-01-03T11:55:21.104Z,23.37
2023-01-03T11:56:21.044Z,23.38
2023-01-03T11:57:20.982Z,23.38
2023-01-03T11:58:20.944Z,23.31
2023-01-03T11:59:20.877Z,23.34
2023-01-03T12:00:20.842Z,23.33
2023-01-03T12:01:20.826Z,23.31
2023-01-03T12:02:20.867Z,23.31
2023-01-03T12:03:20.853Z,23.36
2023-01-03T12:04:20.674Z,23.28
2023-01-03T12:05:20.579Z,23.25
2023-01-03T12:06:24.999Z,23.28
2023-01-03T12:07:47.174Z,23.29
2023-01-03T12:08:21.410Z,23.28
2023-01-03T12:09:20.360Z,23.30
2023-01-03T12:10:20.327Z,23.22
2023-01-03T12:11:20.264Z,23.25
2023-01-03T12:12:20.219Z,23.30
2023-01-03T12:13:25.238Z,23.27
2023-01-03T12:14:21.104Z,23.31
2023-01-03T12:15:20.160Z,23.31
2023-01-03T12:16:20.086Z,23.24
2023-01-03T12:17:20.031Z,23.28
2023-01-03T12:18:20.003Z,23.22
2023-01-03T12:19:19.994Z,23.27
2023-01-03T12:20:19.796Z,23.25
2023-01-03T12:21:19.721Z,23.27
2023-01-03T12:22:19.673Z,23.30
2023-01-03T12:23:19.630Z,23.28
2023-01-03T12:24:19.560Z,23.30
2023-01-03T12:25:19.500Z,23.30
2023-01-03T12:26:19.459Z,23.27
2023-01-03T12:27:19.400Z,23.30
2023-01-03T12:28:19.835Z,23.30
2023-01-03T12:29:19.291Z,23.25
2023-01-03T12:30:19.234Z,23.27
2023-01-03T12:31:19.327Z,23.28
2023-01-03T12:32:19.168Z,23.30
2023-01-03T12:33:19.067Z,23.30
2023-01-03T12:34:19.005Z,23.30
2023-01-03T14:22:28.518Z,23.38
2023-01-03T14:24:13.229Z,23.37
2023-01-03T14:28:13.036Z,23.38
2023-01-03T14:40:12.522Z,23.41
2023-01-03T14:41:12.380Z,23.44
2023-01-03T14:42:12.333Z,23.44
2023-01-03T14:43:17.573Z,23.48
2023-01-03T14:44:13.232Z,23.44
2023-01-03T14:45:12.183Z,23.46
2023-01-03T14:46:12.174Z,23.45
2023-01-03T17:39:04.017Z,23.99
2023-01-03T18:04:02.950Z,24.10
2023-01-03T18:05:16.318Z,24.12
2023-01-03T18:07:02.652Z,24.09
2023-01-03T18:08:02.598Z,24.12
2023-01-03T18:09:02.577Z,24.05
2023-01-03T18:10:02.514Z,24.07
2023-01-03T18:11:02.474Z,24.12
2023-01-03T18:12:02.430Z,24.04
2023-01-03T18:13:02.377Z,24.11
2023-01-03T18:14:02.351Z,24.12
2023-01-03T18:15:02.286Z,24.05
2023-01-03T18:16:02.294Z,24.05
2023-01-03T18:17:02.225Z,24.07
2023-01-03T18:18:02.146Z,24.06
2023-01-03T18:19:02.102Z,24.09
2023-01-03T20:44:54.885Z,24.26
2023-01-03T20:45:54.842Z,24.24
2023-01-03T20:46:54.796Z,24.21
2023-01-03T20:47:54.713Z,24.24
2023-01-03T20:48:54.676Z,24.24
2023-01-03T20:49:54.622Z,24.21
2023-01-03T20:50:54.580Z,24.24
2023-01-03T20:51:54.528Z,24.26
2023-01-03T20:52:54.499Z,24.24
2023-01-03T20:53:55.444Z,24.23
2023-01-03T20:54:54.403Z,24.24
2023-01-03T20:55:54.355Z,24.23
2023-01-03T20:56:54.310Z,24.23
2023-01-03T20:57:54.301Z,24.22
2023-01-03T20:58:54.263Z,24.20
2023-01-03T20:59:54.197Z,24.21
2023-01-03T21:00:59.922Z,24.17
2023-01-03T21:01:55.215Z,24.19
2023-01-03T21:02:54.276Z,24.23
2023-01-03T21:03:54.095Z,24.23
2023-01-03T21:04:53.993Z,24.24
2023-01-03T21:05:53.917Z,24.20
2023-01-03T21:06:53.907Z,24.23
2023-01-03T21:07:53.913Z,24.20
2023-01-03T21:08:53.798Z,24.27
2023-01-03T21:09:53.762Z,24.23
2023-01-03T21:10:53.697Z,24.24
2023-01-03T21:11:53.669Z,24.23
2023-01-03T21:12:53.618Z,24.24
2023-01-03T21:13:53.901Z,24.24
2023-01-03T21:14:53.523Z,24.20
2023-01-03T21:15:53.514Z,24.24
2023-01-03T21:16:53.551Z,24.20
2023-01-03T21:17:53.404Z,24.24
2023-01-03T21:18:53.379Z,24.21
2023-01-03T21:19:53.346Z,24.23
2023-01-03T21:20:53.292Z,24.17
2023-01-03T21:21:53.270Z,24.18
2023-01-03T21:22:53.215Z,24.20
2023-01-03T21:23:53.171Z,24.23
2023-01-03T21:24:57.589Z,24.23
2023-01-03T21:25:53.845Z,24.23
2023-01-03T21:26:53.104Z,24.21
2023-01-03T21:27:53.035Z,24.23
2023-01-03T21:28:52.970Z,24.23
2023-01-03T21:29:52.902Z,24.21
2023-01-03T21:30:52.843Z,24.19
2023-01-03T21:31:52.918Z,24.20
2023-01-03T21:32:52.762Z,24.21
2023-01-03T21:33:52.724Z,24.20
2023-01-03T21:34:52.673Z,24.17
2023-01-03T21:35:52.638Z,24.18
2023-01-03T21:36:52.590Z,24.20
2023-01-03T21:37:52.580Z,24.16
2023-01-03T21:38:52.517Z,24.21
2023-01-03T21:39:52.473Z,24.20
2023-01-03T21:40:52.434Z,24.16
2023-01-03T21:41:52.385Z,24.17
2023-01-03T21:42:52.349Z,24.21
2023-01-03T21:43:52.294Z,24.21
2023-01-03T21:44:52.255Z,24.20
2023-01-03T21:45:52.239Z,24.20
2023-01-03T21:46:52.149Z,24.23
2023-01-03T21:47:52.134Z,24.20
2023-01-03T21:48:52.159Z,24.20
2023-01-03T21:49:52.167Z,24.16
2023-01-03T23:52:46.182Z,24.22
2023-01-03T23:53:46.163Z,24.22
2023-01-03T23:54:46.083Z,24.27
2023-01-03T23:55:46.050Z,24.24
2023-01-03T23:56:45.985Z,24.30
2023-01-03T23:57:45.951Z,24.27
2023-01-03T23:58:45.906Z,24.27
2023-01-03T23:59:45.849Z,24.27
